sensor_id;sensor_type;location;lat;lon;timestamp;P1;durP1;ratioP1;P2;durP2;ratioP2
54388;SDS011;40975;50.390;8.640;2022-07-23T00:01:57;8.77;;;6.03;;
54388;SDS011;40975;50.390;8.640;2022-07-23T00:04:23;7.97;;;5.82;;
54388;SDS011;40975;50.390;8.640;2022-07-23T00:06:48;7.28;;;5.47;;
54388;SDS011;40975;50.390;8.640;2022-07-23T00:09:14;7.70;;;5.68;;
54388;SDS011;40975;50.390;8.640;2022-07-23T00:11:39;9.02;;;6.20;;
54388;SDS011;40975;50.390;8.640;2022-07-23T00:14:04;11.10;;;6.20;;
54388;SDS011;40975;50.390;8.640;2022-07-23T00:16:30;8.38;;;6.20;;
54388;SDS011;40975;50.390;8.640;2022-07-23T00:18:55;8.43;;;5.47;;
54388;SDS011;40975;50.390;8.640;2022-07-23T00:21:20;9.20;;;6.32;;
54388;SDS011;40975;50.390;8.640;2022-07-23T00:23:46;8.23;;;5.28;;
54388;SDS011;40975;50.390;8.640;2022-07-23T00:26:11;11.13;;;6.63;;
54388;SDS011;40975;50.390;8.640;2022-07-23T00:28:36;8.95;;;5.70;;
54388;SDS011;40975;50.390;8.640;2022-07-23T00:31:02;11.02;;;6.28;;
54388;SDS011;40975;50.390;8.640;2022-07-23T00:33:27;8.75;;;6.80;;
54388;SDS011;40975;50.390;8.640;2022-07-23T00:35:53;11.40;;;7.20;;
54388;SDS011;40975;50.390;8.640;2022-07-23T00:38:18;9.13;;;6.57;;
54388;SDS011;40975;50.390;8.640;2022-07-23T00:40:43;9.82;;;6.32;;
54388;SDS011;40975;50.390;8.640;2022-07-23T00:43:09;10.43;;;6.45;;
54388;SDS011;40975;50.390;8.640;2022-07-23T00:45:35;9.63;;;7.03;;
54388;SDS011;40975;50.390;8.640;2022-07-23T00:48:01;10.50;;;6.45;;
54388;SDS011;40975;50.390;8.640;2022-07-23T00:50:27;11.63;;;6.75;;
54388;SDS011;40975;50.390;8.640;2022-07-23T00:52:53;11.18;;;6.30;;
54388;SDS011;40975;50.390;8.640;2022-07-23T00:55:18;10.30;;;6.70;;
54388;SDS011;40975;50.390;8.640;2022-07-23T00:57:44;8.90;;;6.68;;
54388;SDS011;40975;50.390;8.640;2022-07-23T01:00:11;11.57;;;6.65;;
54388;SDS011;40975;50.390;8.640;2022-07-23T01:02:38;10.43;;;6.63;;
54388;SDS011;40975;50.390;8.640;2022-07-23T01:05:04;10.70;;;6.43;;
54388;SDS011;40975;50.390;8.640;2022-07-23T01:07:30;8.93;;;6.45;;
54388;SDS011;40975;50.390;8.640;2022-07-23T01:09:56;8.55;;;6.55;;
54388;SDS011;40975;50.390;8.640;2022-07-23T01:12:22;10.90;;;6.72;;
54388;SDS011;40975;50.390;8.640;2022-07-23T01:14:58;11.25;;;6.68;;
54388;SDS011;40975;50.390;8.640;2022-07-23T01:17:25;8.60;;;6.13;;
54388;SDS011;40975;50.390;8.640;2022-07-23T01:19:51;8.70;;;6.30;;
54388;SDS011;40975;50.390;8.640;2022-07-23T01:22:17;11.20;;;6.93;;
54388;SDS011;40975;50.390;8.640;2022-07-23T01:24:44;10.27;;;6.45;;
54388;SDS011;40975;50.390;8.640;2022-07-23T01:27:09;12.77;;;7.15;;
54388;SDS011;40975;50.390;8.640;2022-07-23T01:29:36;9.45;;;6.13;;
54388;SDS011;40975;50.390;8.640;2022-07-23T01:32:07;8.27;;;6.22;;
54388;SDS011;40975;50.390;8.640;2022-07-23T01:34:32;9.35;;;6.07;;
54388;SDS011;40975;50.390;8.640;2022-07-23T01:36:57;8.20;;;6.55;;
54388;SDS011;40975;50.390;8.640;2022-07-23T01:39:23;10.45;;;5.93;;
54388;SDS011;40975;50.390;8.640;2022-07-23T01:41:50;8.25;;;6.53;;
54388;SDS011;40975;50.390;8.640;2022-07-23T01:44:15;9.93;;;6.32;;
54388;SDS011;40975;50.390;8.640;2022-07-23T01:46:41;8.40;;;5.95;;
54388;SDS011;40975;50.390;8.640;2022-07-23T01:49:07;8.60;;;6.05;;
54388;SDS011;40975;50.390;8.640;2022-07-23T01:51:51;8.88;;;5.80;;
54388;SDS011;40975;50.390;8.640;2022-07-23T01:54:31;8.98;;;6.00;;
54388;SDS011;40975;50.390;8.640;2022-07-23T01:56:58;9.15;;;6.53;;
54388;SDS011;40975;50.390;8.640;2022-07-23T01:59:26;10.23;;;6.50;;
54388;SDS011;40975;50.390;8.640;2022-07-23T02:01:52;8.60;;;7.00;;
54388;SDS011;40975;50.390;8.640;2022-07-23T02:04:18;9.60;;;6.00;;
54388;SDS011;40975;50.390;8.640;2022-07-23T02:06:48;9.80;;;6.20;;
54388;SDS011;40975;50.390;8.640;2022-07-23T02:09:14;11.55;;;6.47;;
54388;SDS011;40975;50.390;8.640;2022-07-23T02:11:40;8.32;;;6.10;;
54388;SDS011;40975;50.390;8.640;2022-07-23T02:14:06;9.52;;;6.60;;
54388;SDS011;40975;50.390;8.640;2022-07-23T02:16:31;10.75;;;6.32;;
54388;SDS011;40975;50.390;8.640;2022-07-23T02:19:00;10.45;;;6.88;;
54388;SDS011;40975;50.390;8.640;2022-07-23T02:21:26;8.35;;;5.88;;
54388;SDS011;40975;50.390;8.640;2022-07-23T02:23:52;9.35;;;7.00;;
54388;SDS011;40975;50.390;8.640;2022-07-23T02:26:18;9.50;;;6.15;;
54388;SDS011;40975;50.390;8.640;2022-07-23T02:28:44;10.18;;;7.03;;
54388;SDS011;40975;50.390;8.640;2022-07-23T02:31:10;7.95;;;5.50;;
54388;SDS011;40975;50.390;8.640;2022-07-23T02:33:35;10.55;;;6.90;;
54388;SDS011;40975;50.390;8.640;2022-07-23T02:36:01;10.88;;;7.43;;
54388;SDS011;40975;50.390;8.640;2022-07-23T02:38:27;13.95;;;7.47;;
54388;SDS011;40975;50.390;8.640;2022-07-23T02:40:53;11.52;;;7.55;;
54388;SDS011;40975;50.390;8.640;2022-07-23T02:43:18;10.55;;;7.00;;
54388;SDS011;40975;50.390;8.640;2022-07-23T02:45:44;11.32;;;7.38;;
54388;SDS011;40975;50.390;8.640;2022-07-23T02:48:10;11.73;;;7.20;;
54388;SDS011;40975;50.390;8.640;2022-07-23T02:50:38;12.55;;;7.85;;
54388;SDS011;40975;50.390;8.640;2022-07-23T02:53:04;11.30;;;7.32;;
54388;SDS011;40975;50.390;8.640;2022-07-23T02:55:31;11.93;;;7.60;;
54388;SDS011;40975;50.390;8.640;2022-07-23T02:58:00;11.88;;;7.47;;
54388;SDS011;40975;50.390;8.640;2022-07-23T03:00:25;11.43;;;7.55;;
54388;SDS011;40975;50.390;8.640;2022-07-23T03:02:51;11.10;;;7.20;;
54388;SDS011;40975;50.390;8.640;2022-07-23T03:05:17;14.25;;;7.20;;
54388;SDS011;40975;50.390;8.640;2022-07-23T03:07:43;12.75;;;7.43;;
54388;SDS011;40975;50.390;8.640;2022-07-23T03:10:08;9.23;;;6.85;;
54388;SDS011;40975;50.390;8.640;2022-07-23T03:12:34;11.13;;;7.60;;
54388;SDS011;40975;50.390;8.640;2022-07-23T03:14:59;12.52;;;7.40;;
54388;SDS011;40975;50.390;8.640;2022-07-23T03:17:26;13.82;;;7.50;;
54388;SDS011;40975;50.390;8.640;2022-07-23T03:19:51;11.48;;;7.95;;
54388;SDS011;40975;50.390;8.640;2022-07-23T03:22:17;13.23;;;7.78;;
54388;SDS011;40975;50.390;8.640;2022-07-23T03:24:42;11.45;;;8.45;;
54388;SDS011;40975;50.390;8.640;2022-07-23T03:27:26;9.80;;;6.57;;
54388;SDS011;40975;50.390;8.640;2022-07-23T03:29:54;10.85;;;6.68;;
54388;SDS011;40975;50.390;8.640;2022-07-23T03:32:21;10.40;;;7.53;;
54388;SDS011;40975;50.390;8.640;2022-07-23T03:34:48;12.10;;;7.32;;
54388;SDS011;40975;50.390;8.640;2022-07-23T03:37:13;11.82;;;7.13;;
54388;SDS011;40975;50.390;8.640;2022-07-23T03:39:39;12.30;;;7.72;;
54388;SDS011;40975;50.390;8.640;2022-07-23T03:42:05;11.57;;;7.40;;
54388;SDS011;40975;50.390;8.640;2022-07-23T03:44:31;13.63;;;7.72;;
54388;SDS011;40975;50.390;8.640;2022-07-23T03:46:56;13.93;;;9.48;;
54388;SDS011;40975;50.390;8.640;2022-07-23T03:49:22;14.73;;;9.00;;
54388;SDS011;40975;50.390;8.640;2022-07-23T03:51:48;14.40;;;7.78;;
54388;SDS011;40975;50.390;8.640;2022-07-23T03:54:13;13.20;;;8.32;;
54388;SDS011;40975;50.390;8.640;2022-07-23T03:56:38;13.63;;;8.13;;
54388;SDS011;40975;50.390;8.640;2022-07-23T03:59:04;13.82;;;8.57;;
54388;SDS011;40975;50.390;8.640;2022-07-23T04:01:29;13.85;;;8.30;;
54388;SDS011;40975;50.390;8.640;2022-07-23T04:03:55;16.13;;;8.70;;
54388;SDS011;40975;50.390;8.640;2022-07-23T04:06:20;12.68;;;8.50;;
54388;SDS011;40975;50.390;8.640;2022-07-23T04:08:47;15.38;;;8.88;;
54388;SDS011;40975;50.390;8.640;2022-07-23T04:11:12;14.55;;;8.07;;
54388;SDS011;40975;50.390;8.640;2022-07-23T04:13:38;15.35;;;9.57;;
54388;SDS011;40975;50.390;8.640;2022-07-23T04:16:03;13.48;;;8.38;;
54388;SDS011;40975;50.390;8.640;2022-07-23T04:18:29;12.52;;;8.23;;
54388;SDS011;40975;50.390;8.640;2022-07-23T04:21:04;17.08;;;8.70;;
54388;SDS011;40975;50.390;8.640;2022-07-23T04:23:30;18.67;;;8.68;;
54388;SDS011;40975;50.390;8.640;2022-07-23T04:25:55;15.45;;;9.05;;
54388;SDS011;40975;50.390;8.640;2022-07-23T04:28:20;13.60;;;8.35;;
54388;SDS011;40975;50.390;8.640;2022-07-23T04:30:46;13.73;;;9.15;;
54388;SDS011;40975;50.390;8.640;2022-07-23T04:33:13;15.13;;;9.10;;
54388;SDS011;40975;50.390;8.640;2022-07-23T04:35:39;15.23;;;8.38;;
54388;SDS011;40975;50.390;8.640;2022-07-23T04:38:14;15.70;;;8.85;;
54388;SDS011;40975;50.390;8.640;2022-07-23T04:40:40;13.90;;;8.05;;
54388;SDS011;40975;50.390;8.640;2022-07-23T04:43:06;15.00;;;9.10;;
54388;SDS011;40975;50.390;8.640;2022-07-23T04:45:36;14.63;;;8.73;;
54388;SDS011;40975;50.390;8.640;2022-07-23T04:48:01;17.10;;;9.77;;
54388;SDS011;40975;50.390;8.640;2022-07-23T04:50:27;14.88;;;9.55;;
54388;SDS011;40975;50.390;8.640;2022-07-23T04:52:56;15.45;;;9.50;;
54388;SDS011;40975;50.390;8.640;2022-07-23T04:55:21;15.20;;;8.75;;
54388;SDS011;40975;50.390;8.640;2022-07-23T04:57:47;12.52;;;8.55;;
54388;SDS011;40975;50.390;8.640;2022-07-23T05:00:13;14.18;;;7.50;;
54388;SDS011;40975;50.390;8.640;2022-07-23T05:02:39;16.45;;;8.05;;
54388;SDS011;40975;50.390;8.640;2022-07-23T05:05:04;14.32;;;7.82;;
54388;SDS011;40975;50.390;8.640;2022-07-23T05:07:30;12.20;;;7.35;;
54388;SDS011;40975;50.390;8.640;2022-07-23T05:09:56;11.23;;;6.63;;
54388;SDS011;40975;50.390;8.640;2022-07-23T05:12:21;11.98;;;7.35;;
54388;SDS011;40975;50.390;8.640;2022-07-23T05:14:46;9.85;;;6.93;;
54388;SDS011;40975;50.390;8.640;2022-07-23T05:17:12;12.07;;;7.30;;
54388;SDS011;40975;50.390;8.640;2022-07-23T05:19:37;9.90;;;6.95;;
54388;SDS011;40975;50.390;8.640;2022-07-23T05:22:03;12.05;;;7.07;;
54388;SDS011;40975;50.390;8.640;2022-07-23T05:24:29;11.15;;;6.78;;
54388;SDS011;40975;50.390;8.640;2022-07-23T05:26:54;8.88;;;5.82;;
54388;SDS011;40975;50.390;8.640;2022-07-23T05:29:20;10.18;;;5.55;;
54388;SDS011;40975;50.390;8.640;2022-07-23T05:31:46;8.82;;;6.55;;
54388;SDS011;40975;50.390;8.640;2022-07-23T05:34:12;10.68;;;6.50;;
54388;SDS011;40975;50.390;8.640;2022-07-23T05:36:37;10.77;;;5.95;;
54388;SDS011;40975;50.390;8.640;2022-07-23T05:39:03;8.50;;;6.20;;
54388;SDS011;40975;50.390;8.640;2022-07-23T05:41:32;8.40;;;5.78;;
54388;SDS011;40975;50.390;8.640;2022-07-23T05:43:58;8.30;;;5.90;;
54388;SDS011;40975;50.390;8.640;2022-07-23T05:46:25;9.60;;;6.38;;
54388;SDS011;40975;50.390;8.640;2022-07-23T05:48:55;6.78;;;5.25;;
54388;SDS011;40975;50.390;8.640;2022-07-23T05:51:39;7.05;;;5.22;;
54388;SDS011;40975;50.390;8.640;2022-07-23T05:54:05;8.93;;;6.10;;
54388;SDS011;40975;50.390;8.640;2022-07-23T05:56:34;8.68;;;5.68;;
54388;SDS011;40975;50.390;8.640;2022-07-23T05:58:59;6.72;;;5.55;;
54388;SDS011;40975;50.390;8.640;2022-07-23T06:01:25;7.53;;;5.10;;
54388;SDS011;40975;50.390;8.640;2022-07-23T06:04:01;6.35;;;4.65;;
54388;SDS011;40975;50.390;8.640;2022-07-23T06:06:32;6.47;;;5.18;;
54388;SDS011;40975;50.390;8.640;2022-07-23T06:08:58;8.10;;;4.93;;
54388;SDS011;40975;50.390;8.640;2022-07-23T06:11:23;8.30;;;5.53;;
54388;SDS011;40975;50.390;8.640;2022-07-23T06:13:49;8.45;;;5.47;;
54388;SDS011;40975;50.390;8.640;2022-07-23T06:16:14;7.40;;;5.10;;
54388;SDS011;40975;50.390;8.640;2022-07-23T06:18:40;7.47;;;5.40;;
54388;SDS011;40975;50.390;8.640;2022-07-23T06:21:07;7.28;;;4.75;;
54388;SDS011;40975;50.390;8.640;2022-07-23T06:23:32;6.70;;;5.15;;
54388;SDS011;40975;50.390;8.640;2022-07-23T06:25:57;6.68;;;5.10;;
54388;SDS011;40975;50.390;8.640;2022-07-23T06:28:23;7.82;;;5.47;;
54388;SDS011;40975;50.390;8.640;2022-07-23T06:30:49;7.57;;;5.18;;
54388;SDS011;40975;50.390;8.640;2022-07-23T06:33:14;7.90;;;5.40;;
54388;SDS011;40975;50.390;8.640;2022-07-23T06:35:40;7.15;;;5.22;;
54388;SDS011;40975;50.390;8.640;2022-07-23T06:38:06;5.72;;;5.07;;
54388;SDS011;40975;50.390;8.640;2022-07-23T06:40:32;6.43;;;5.10;;
54388;SDS011;40975;50.390;8.640;2022-07-23T06:42:57;7.03;;;4.97;;
54388;SDS011;40975;50.390;8.640;2022-07-23T06:45:25;5.85;;;4.80;;
54388;SDS011;40975;50.390;8.640;2022-07-23T06:47:51;5.57;;;4.82;;
54388;SDS011;40975;50.390;8.640;2022-07-23T06:50:17;9.07;;;5.03;;
54388;SDS011;40975;50.390;8.640;2022-07-23T06:52:43;6.60;;;5.32;;
54388;SDS011;40975;50.390;8.640;2022-07-23T06:55:08;6.15;;;4.70;;
54388;SDS011;40975;50.390;8.640;2022-07-23T06:57:34;6.68;;;4.22;;
54388;SDS011;40975;50.390;8.640;2022-07-23T06:59:59;7.90;;;4.72;;
54388;SDS011;40975;50.390;8.640;2022-07-23T07:02:25;7.03;;;4.50;;
54388;SDS011;40975;50.390;8.640;2022-07-23T07:04:50;6.63;;;4.90;;
54388;SDS011;40975;50.390;8.640;2022-07-23T07:07:15;5.60;;;4.60;;
54388;SDS011;40975;50.390;8.640;2022-07-23T07:09:41;6.07;;;4.22;;
54388;SDS011;40975;50.390;8.640;2022-07-23T07:12:06;6.07;;;4.40;;
54388;SDS011;40975;50.390;8.640;2022-07-23T07:14:32;6.80;;;4.07;;
54388;SDS011;40975;50.390;8.640;2022-07-23T07:16:57;5.35;;;4.40;;
54388;SDS011;40975;50.390;8.640;2022-07-23T07:19:22;5.07;;;4.00;;
54388;SDS011;40975;50.390;8.640;2022-07-23T07:21:48;5.72;;;4.30;;
54388;SDS011;40975;50.390;8.640;2022-07-23T07:24:13;5.57;;;3.97;;
54388;SDS011;40975;50.390;8.640;2022-07-23T07:26:38;5.38;;;3.92;;
54388;SDS011;40975;50.390;8.640;2022-07-23T07:29:04;4.50;;;3.72;;
54388;SDS011;40975;50.390;8.640;2022-07-23T07:31:30;4.07;;;3.40;;
54388;SDS011;40975;50.390;8.640;2022-07-23T07:33:56;5.35;;;3.50;;
54388;SDS011;40975;50.390;8.640;2022-07-23T07:36:22;4.78;;;3.47;;
54388;SDS011;40975;50.390;8.640;2022-07-23T07:38:47;4.97;;;3.50;;
54388;SDS011;40975;50.390;8.640;2022-07-23T07:41:13;8.35;;;3.85;;
54388;SDS011;40975;50.390;8.640;2022-07-23T07:43:38;4.65;;;3.25;;
54388;SDS011;40975;50.390;8.640;2022-07-23T07:46:03;5.30;;;3.47;;
54388;SDS011;40975;50.390;8.640;2022-07-23T07:48:29;5.50;;;3.88;;
54388;SDS011;40975;50.390;8.640;2022-07-23T07:50:54;4.10;;;3.40;;
54388;SDS011;40975;50.390;8.640;2022-07-23T07:53:20;3.70;;;3.30;;
54388;SDS011;40975;50.390;8.640;2022-07-23T07:55:46;4.22;;;3.20;;
54388;SDS011;40975;50.390;8.640;2022-07-23T07:58:11;4.28;;;3.47;;
54388;SDS011;40975;50.390;8.640;2022-07-23T08:00:36;4.10;;;3.00;;
54388;SDS011;40975;50.390;8.640;2022-07-23T08:03:02;3.78;;;3.20;;
54388;SDS011;40975;50.390;8.640;2022-07-23T08:05:28;4.53;;;3.10;;
54388;SDS011;40975;50.390;8.640;2022-07-23T08:07:55;3.50;;;3.10;;
54388;SDS011;40975;50.390;8.640;2022-07-23T08:10:22;5.93;;;3.13;;
54388;SDS011;40975;50.390;8.640;2022-07-23T08:12:48;5.53;;;3.28;;
54388;SDS011;40975;50.390;8.640;2022-07-23T08:15:16;3.97;;;2.83;;
54388;SDS011;40975;50.390;8.640;2022-07-23T08:17:44;5.43;;;3.22;;
54388;SDS011;40975;50.390;8.640;2022-07-23T08:20:11;3.53;;;3.22;;
54388;SDS011;40975;50.390;8.640;2022-07-23T08:22:42;4.45;;;2.95;;
54388;SDS011;40975;50.390;8.640;2022-07-23T08:25:19;3.05;;;2.63;;
54388;SDS011;40975;50.390;8.640;2022-07-23T08:27:46;4.72;;;3.10;;
54388;SDS011;40975;50.390;8.640;2022-07-23T08:30:12;2.88;;;2.47;;
54388;SDS011;40975;50.390;8.640;2022-07-23T08:32:54;3.90;;;2.63;;
54388;SDS011;40975;50.390;8.640;2022-07-23T08:35:25;2.50;;;2.30;;
54388;SDS011;40975;50.390;8.640;2022-07-23T08:37:55;4.72;;;3.05;;
54388;SDS011;40975;50.390;8.640;2022-07-23T08:40:22;5.65;;;2.90;;
54388;SDS011;40975;50.390;8.640;2022-07-23T08:42:50;3.00;;;2.70;;
54388;SDS011;40975;50.390;8.640;2022-07-23T08:45:16;2.90;;;2.70;;
54388;SDS011;40975;50.390;8.640;2022-07-23T08:47:43;3.17;;;2.88;;
54388;SDS011;40975;50.390;8.640;2022-07-23T08:50:09;3.35;;;2.58;;
54388;SDS011;40975;50.390;8.640;2022-07-23T08:52:35;4.32;;;2.75;;
54388;SDS011;40975;50.390;8.640;2022-07-23T08:55:01;3.70;;;2.80;;
54388;SDS011;40975;50.390;8.640;2022-07-23T08:57:26;4.25;;;2.60;;
54388;SDS011;40975;50.390;8.640;2022-07-23T08:59:52;2.70;;;2.50;;
54388;SDS011;40975;50.390;8.640;2022-07-23T09:02:17;3.50;;;2.65;;
54388;SDS011;40975;50.390;8.640;2022-07-23T09:04:43;3.10;;;2.60;;
54388;SDS011;40975;50.390;8.640;2022-07-23T09:07:08;2.97;;;2.70;;
54388;SDS011;40975;50.390;8.640;2022-07-23T09:09:33;3.38;;;2.78;;
54388;SDS011;40975;50.390;8.640;2022-07-23T09:12:17;3.35;;;2.30;;
54388;SDS011;40975;50.390;8.640;2022-07-23T09:14:43;2.25;;;2.10;;
54388;SDS011;40975;50.390;8.640;2022-07-23T09:17:21;2.63;;;2.00;;
54388;SDS011;40975;50.390;8.640;2022-07-23T09:19:46;2.65;;;2.45;;
54388;SDS011;40975;50.390;8.640;2022-07-23T09:22:22;2.85;;;2.50;;
54388;SDS011;40975;50.390;8.640;2022-07-23T09:30:22;2.97;;;2.78;;
54388;SDS011;40975;50.390;8.640;2022-07-23T09:33:07;3.30;;;2.67;;
54388;SDS011;40975;50.390;8.640;2022-07-23T09:35:50;2.63;;;2.42;;
54388;SDS011;40975;50.390;8.640;2022-07-23T09:38:18;5.32;;;2.70;;
54388;SDS011;40975;50.390;8.640;2022-07-23T09:40:45;4.07;;;2.40;;
54388;SDS011;40975;50.390;8.640;2022-07-23T09:43:11;3.83;;;2.80;;
54388;SDS011;40975;50.390;8.640;2022-07-23T09:45:38;3.30;;;2.55;;
54388;SDS011;40975;50.390;8.640;2022-07-23T09:48:14;3.95;;;2.92;;
54388;SDS011;40975;50.390;8.640;2022-07-23T09:50:43;2.97;;;2.67;;
54388;SDS011;40975;50.390;8.640;2022-07-23T09:53:09;2.88;;;2.58;;
54388;SDS011;40975;50.390;8.640;2022-07-23T09:55:51;2.92;;;2.60;;
54388;SDS011;40975;50.390;8.640;2022-07-23T09:58:23;3.65;;;2.40;;
54388;SDS011;40975;50.390;8.640;2022-07-23T10:00:51;2.72;;;2.53;;
54388;SDS011;40975;50.390;8.640;2022-07-23T10:03:17;4.38;;;2.38;;
54388;SDS011;40975;50.390;8.640;2022-07-23T10:06:20;2.60;;;2.40;;
54388;SDS011;40975;50.390;8.640;2022-07-23T10:09:05;5.38;;;2.72;;
54388;SDS011;40975;50.390;8.640;2022-07-23T10:12:01;3.00;;;2.70;;
54388;SDS011;40975;50.390;8.640;2022-07-23T10:14:49;3.88;;;2.78;;
54388;SDS011;40975;50.390;8.640;2022-07-23T10:17:15;3.03;;;2.40;;
54388;SDS011;40975;50.390;8.640;2022-07-23T10:19:41;2.97;;;2.78;;
54388;SDS011;40975;50.390;8.640;2022-07-23T10:22:27;3.10;;;2.70;;
54388;SDS011;40975;50.390;8.640;2022-07-23T10:39:05;3.28;;;2.90;;
54388;SDS011;40975;50.390;8.640;2022-07-23T10:41:48;3.75;;;3.45;;
54388;SDS011;40975;50.390;8.640;2022-07-23T10:44:17;3.75;;;3.45;;
54388;SDS011;40975;50.390;8.640;2022-07-23T10:49:35;3.40;;;3.10;;
54388;SDS011;40975;50.390;8.640;2022-07-23T10:52:16;3.38;;;3.17;;
54388;SDS011;40975;50.390;8.640;2022-07-23T10:54:50;3.60;;;3.30;;
54388;SDS011;40975;50.390;8.640;2022-07-23T10:57:18;3.72;;;3.42;;
54388;SDS011;40975;50.390;8.640;2022-07-23T11:02:28;3.85;;;3.20;;
54388;SDS011;40975;50.390;8.640;2022-07-23T11:04:58;4.32;;;3.85;;
54388;SDS011;40975;50.390;8.640;2022-07-23T11:07:35;3.38;;;3.10;;
54388;SDS011;40975;50.390;8.640;2022-07-23T11:10:01;3.83;;;3.10;;
54388;SDS011;40975;50.390;8.640;2022-07-23T11:15:09;4.07;;;3.60;;
54388;SDS011;40975;50.390;8.640;2022-07-23T11:22:40;4.13;;;3.72;;
54388;SDS011;40975;50.390;8.640;2022-07-23T11:25:13;5.30;;;3.72;;
54388;SDS011;40975;50.390;8.640;2022-07-23T11:30:40;4.00;;;3.60;;
54388;SDS011;40975;50.390;8.640;2022-07-23T11:35:32;4.23;;;3.80;;
54388;SDS011;40975;50.390;8.640;2022-07-23T11:40:38;4.90;;;3.53;;
54388;SDS011;40975;50.390;8.640;2022-07-23T11:43:05;3.75;;;3.45;;
54388;SDS011;40975;50.390;8.640;2022-07-23T11:45:36;4.93;;;3.88;;
54388;SDS011;40975;50.390;8.640;2022-07-23T11:48:08;4.45;;;3.20;;
54388;SDS011;40975;50.390;8.640;2022-07-23T11:50:35;4.93;;;4.15;;
54388;SDS011;40975;50.390;8.640;2022-07-23T11:53:02;4.63;;;4.22;;
54388;SDS011;40975;50.390;8.640;2022-07-23T11:55:28;4.25;;;3.80;;
54388;SDS011;40975;50.390;8.640;2022-07-23T11:57:54;3.92;;;3.58;;
54388;SDS011;40975;50.390;8.640;2022-07-23T12:00:21;3.78;;;3.47;;
54388;SDS011;40975;50.390;8.640;2022-07-23T12:02:49;3.83;;;3.53;;
54388;SDS011;40975;50.390;8.640;2022-07-23T12:05:20;4.22;;;3.60;;
54388;SDS011;40975;50.390;8.640;2022-07-23T12:07:48;3.80;;;3.50;;
54388;SDS011;40975;50.390;8.640;2022-07-23T12:10:24;4.22;;;3.85;;
54388;SDS011;40975;50.390;8.640;2022-07-23T12:12:57;4.13;;;3.65;;
54388;SDS011;40975;50.390;8.640;2022-07-23T12:15:25;5.72;;;3.63;;
54388;SDS011;40975;50.390;8.640;2022-07-23T12:17:57;4.30;;;3.75;;
54388;SDS011;40975;50.390;8.640;2022-07-23T12:20:24;4.60;;;4.18;;
54388;SDS011;40975;50.390;8.640;2022-07-23T12:22:52;3.85;;;3.50;;
54388;SDS011;40975;50.390;8.640;2022-07-23T12:25:21;4.00;;;3.70;;
54388;SDS011;40975;50.390;8.640;2022-07-23T12:27:58;4.03;;;3.65;;
54388;SDS011;40975;50.390;8.640;2022-07-23T12:30:27;4.75;;;3.42;;
54388;SDS011;40975;50.390;8.640;2022-07-23T12:32:56;4.07;;;3.67;;
54388;SDS011;40975;50.390;8.640;2022-07-23T12:35:22;5.50;;;4.10;;
54388;SDS011;40975;50.390;8.640;2022-07-23T12:37:59;4.28;;;3.95;;
54388;SDS011;40975;50.390;8.640;2022-07-23T12:40:28;5.50;;;3.88;;
54388;SDS011;40975;50.390;8.640;2022-07-23T12:43:01;4.63;;;4.13;;
54388;SDS011;40975;50.390;8.640;2022-07-23T12:45:41;4.07;;;3.72;;
54388;SDS011;40975;50.390;8.640;2022-07-23T12:51:04;4.82;;;4.30;;
54388;SDS011;40975;50.390;8.640;2022-07-23T12:53:38;4.32;;;3.92;;
54388;SDS011;40975;50.390;8.640;2022-07-23T12:56:14;4.85;;;4.13;;
54388;SDS011;40975;50.390;8.640;2022-07-23T13:06:56;4.15;;;3.80;;
54388;SDS011;40975;50.390;8.640;2022-07-23T13:09:30;4.28;;;3.88;;
54388;SDS011;40975;50.390;8.640;2022-07-23T13:11:58;5.25;;;4.05;;
54388;SDS011;40975;50.390;8.640;2022-07-23T13:14:24;4.13;;;3.72;;
54388;SDS011;40975;50.390;8.640;2022-07-23T13:16:51;4.97;;;3.65;;
54388;SDS011;40975;50.390;8.640;2022-07-23T13:19:18;4.40;;;3.85;;
54388;SDS011;40975;50.390;8.640;2022-07-23T13:21:47;5.22;;;3.90;;
54388;SDS011;40975;50.390;8.640;2022-07-23T13:24:12;5.18;;;3.95;;
54388;SDS011;40975;50.390;8.640;2022-07-23T13:26:38;3.92;;;3.58;;
54388;SDS011;40975;50.390;8.640;2022-07-23T13:29:07;4.82;;;3.70;;
54388;SDS011;40975;50.390;8.640;2022-07-23T13:31:32;4.03;;;3.63;;
54388;SDS011;40975;50.390;8.640;2022-07-23T13:33:58;4.45;;;3.65;;
54388;SDS011;40975;50.390;8.640;2022-07-23T13:36:23;4.20;;;3.80;;
54388;SDS011;40975;50.390;8.640;2022-07-23T13:38:49;4.10;;;3.70;;
54388;SDS011;40975;50.390;8.640;2022-07-23T13:41:15;4.68;;;3.97;;
54388;SDS011;40975;50.390;8.640;2022-07-23T13:43:42;4.15;;;3.67;;
54388;SDS011;40975;50.390;8.640;2022-07-23T13:46:07;4.07;;;3.50;;
54388;SDS011;40975;50.390;8.640;2022-07-23T13:48:33;3.97;;;3.25;;
54388;SDS011;40975;50.390;8.640;2022-07-23T13:50:58;4.32;;;3.80;;
54388;SDS011;40975;50.390;8.640;2022-07-23T13:53:23;5.10;;;3.88;;
54388;SDS011;40975;50.390;8.640;2022-07-23T13:55:50;3.60;;;3.30;;
54388;SDS011;40975;50.390;8.640;2022-07-23T13:58:17;4.45;;;3.38;;
54388;SDS011;40975;50.390;8.640;2022-07-23T14:00:44;3.72;;;3.10;;
54388;SDS011;40975;50.390;8.640;2022-07-23T14:03:11;3.45;;;3.13;;
54388;SDS011;40975;50.390;8.640;2022-07-23T14:05:37;3.90;;;3.33;;
54388;SDS011;40975;50.390;8.640;2022-07-23T14:08:02;3.55;;;3.00;;
54388;SDS011;40975;50.390;8.640;2022-07-23T14:10:28;3.80;;;3.40;;
54388;SDS011;40975;50.390;8.640;2022-07-23T14:12:54;3.00;;;2.80;;
54388;SDS011;40975;50.390;8.640;2022-07-23T14:15:21;3.85;;;2.80;;
54388;SDS011;40975;50.390;8.640;2022-07-23T14:17:47;4.28;;;3.35;;
54388;SDS011;40975;50.390;8.640;2022-07-23T14:20:13;3.28;;;2.97;;
54388;SDS011;40975;50.390;8.640;2022-07-23T14:22:40;2.90;;;2.65;;
54388;SDS011;40975;50.390;8.640;2022-07-23T14:25:06;5.82;;;3.05;;
54388;SDS011;40975;50.390;8.640;2022-07-23T14:27:33;4.05;;;3.17;;
54388;SDS011;40975;50.390;8.640;2022-07-23T14:29:59;3.45;;;2.88;;
54388;SDS011;40975;50.390;8.640;2022-07-23T14:32:24;3.38;;;2.92;;
54388;SDS011;40975;50.390;8.640;2022-07-23T14:34:50;3.33;;;2.75;;
54388;SDS011;40975;50.390;8.640;2022-07-23T14:37:16;3.35;;;3.05;;
54388;SDS011;40975;50.390;8.640;2022-07-23T14:39:42;3.30;;;3.00;;
54388;SDS011;40975;50.390;8.640;2022-07-23T14:42:08;3.25;;;2.80;;
54388;SDS011;40975;50.390;8.640;2022-07-23T14:44:35;3.67;;;3.03;;
54388;SDS011;40975;50.390;8.640;2022-07-23T14:47:01;3.33;;;2.97;;
54388;SDS011;40975;50.390;8.640;2022-07-23T14:49:29;2.85;;;2.55;;
54388;SDS011;40975;50.390;8.640;2022-07-23T14:51:55;3.50;;;2.78;;
54388;SDS011;40975;50.390;8.640;2022-07-23T14:54:21;2.90;;;2.70;;
54388;SDS011;40975;50.390;8.640;2022-07-23T14:56:46;3.13;;;2.60;;
54388;SDS011;40975;50.390;8.640;2022-07-23T14:59:12;3.75;;;2.38;;
54388;SDS011;40975;50.390;8.640;2022-07-23T15:01:38;2.65;;;2.45;;
54388;SDS011;40975;50.390;8.640;2022-07-23T15:04:05;3.67;;;2.50;;
54388;SDS011;40975;50.390;8.640;2022-07-23T15:06:31;3.65;;;2.75;;
54388;SDS011;40975;50.390;8.640;2022-07-23T15:08:57;4.22;;;3.20;;
54388;SDS011;40975;50.390;8.640;2022-07-23T15:11:22;3.20;;;2.40;;
54388;SDS011;40975;50.390;8.640;2022-07-23T15:13:48;2.72;;;2.53;;
54388;SDS011;40975;50.390;8.640;2022-07-23T15:16:13;2.60;;;2.40;;
54388;SDS011;40975;50.390;8.640;2022-07-23T15:18:39;3.25;;;2.60;;
54388;SDS011;40975;50.390;8.640;2022-07-23T15:21:04;2.80;;;2.50;;
54388;SDS011;40975;50.390;8.640;2022-07-23T15:23:30;3.72;;;2.65;;
54388;SDS011;40975;50.390;8.640;2022-07-23T15:25:56;2.60;;;2.40;;
54388;SDS011;40975;50.390;8.640;2022-07-23T15:28:21;2.72;;;2.47;;
54388;SDS011;40975;50.390;8.640;2022-07-23T15:30:48;2.83;;;2.63;;
54388;SDS011;40975;50.390;8.640;2022-07-23T15:33:14;2.78;;;2.50;;
54388;SDS011;40975;50.390;8.640;2022-07-23T15:35:39;3.22;;;2.75;;
54388;SDS011;40975;50.390;8.640;2022-07-23T15:38:05;3.90;;;2.30;;